Pico Truncado, Argentina
Current Conditions -  °F | °C
As of 8:00 PM on Saturday 25 Oct 2014 (Local Time) from SAVC Reporting Station
Clear Clear  
Wind Chill: 75°   Ceiling: Unl
Heat Index: 75°   Visibility: 6mi
Dew Point:   Wind: 22mph
Humidity: 8%   Direction: 270°W
Pressure: 29.53"   Gusts: NA
Location:  46.8°S, 67.97°W
Report Text: SAVC 252300Z 27019KT CAVOK 24/M13 Q1000
Loading
Personal Weather Stations






























Interactive Weather Map
Tropical Storm Tracking
New forecast layout! Learn more

10-Day Weather Forecast

Advertisements
Track Severe Weather on mobile